Terminal Aerodrome Forecast
Issued by NWS

Home | Current Version | Previous Version | Text Only | Print | Product List | Glossary On
Versions: 1 2 3 4 5 6 7 8 9 10 11 12 13 14 15 16 17
000
FTAK31 PAFA 231127
TAFAFA
TAF
PAFA 231127Z 2312/2418 VRB04KT P6SM VCSH FEW035 BKN050 BKN150
     FM231800 24008G20KT P6SM VCSH SCT035 BKN050 OVC120
     FM240300 24006KT P6SM VCSH SCT035 BKN050 BKN120=

USA.gov is the U.S. government's official web portal to all federal, state and local government web resources and services.